Time;durP1;ratioP1;P1;durP2;ratioP2;P2;SDS_P1;SDS_P2;PMS_P1;PMS_P2;Temp;Humidity;BMP_temperature;BMP_pressure;BME280_temperature;BME280_humidity;BME280_pressure;Samples;Min_cycle;Max_cycle;Signal;HPM_P1;HPM_P2
2022/11/19 00:03:24;;;;;;;3.67;3.27;;;;;;;1.66;62.24;99738.38;10114372;29;20260;-80
2022/11/19 00:08:46;;;;;;;5.10;3.80;;;;;;;1.61;62.39;99738.41;10132054;29;20232;-79
2022/11/19 00:14:11;;;;;;;3.97;3.63;;;;;;;1.82;61.34;99734.34;10116899;29;20237;-79
2022/11/19 00:19:33;;;;;;;3.93;3.53;;;;;;;1.56;61.93;99749.56;10117838;29;20248;-78
2022/11/19 00:24:55;;;;;;;4.53;4.13;;;;;;;1.86;61.02;99740.97;10131272;29;20237;-78
2022/11/19 00:30:18;;;;;;;5.03;4.53;;;;;;;1.62;61.59;99753.94;10130421;29;20276;-78
2022/11/19 00:35:40;;;;;;;4.60;4.17;;;;;;;1.66;60.70;99758.63;10101532;29;20273;-78
2022/11/19 00:41:02;;;;;;;6.27;5.00;;;;;;;1.26;60.77;99768.09;10113616;29;20221;-78
2022/11/19 00:46:29;;;;;;;6.00;5.20;;;;;;;2.21;59.94;99750.09;10063105;29;20233;-78
2022/11/19 00:51:52;;;;;;;6.83;4.90;;;;;;;1.89;59.87;99762.59;10094870;29;20475;-78
2022/11/19 00:57:14;;;;;;;7.70;5.50;;;;;;;2.11;59.96;99762.13;10093042;29;20221;-77
2022/11/19 01:02:36;;;;;;;8.77;6.43;;;;;;;1.50;59.48;99756.25;10131646;29;20213;-78
2022/11/19 01:07:58;;;;;;;6.10;4.87;;;;;;;1.25;61.96;99757.28;10130378;29;20201;-78
2022/11/19 01:13:36;;;;;;;7.80;6.80;;;;;;;1.48;60.64;99766.81;10130029;29;20232;-78
2022/11/19 01:18:58;;;;;;;8.30;6.97;;;;;;;1.51;60.34;99766.25;10103544;29;20554;-78
2022/11/19 01:24:20;;;;;;;9.37;7.60;;;;;;;0.72;61.39;99778.38;10118350;29;20681;-78
2022/11/19 01:29:42;;;;;;;9.30;8.30;;;;;;;0.92;62.42;99790.22;10125016;29;20249;-80
2022/11/19 01:35:05;;;;;;;8.63;7.57;;;;;;;1.17;59.03;99794.81;10162013;29;20209;-77
2022/11/19 01:40:28;;;;;;;9.03;8.10;;;;;;;1.41;58.96;99791.31;10134649;29;20298;-78
2022/11/19 01:45:56;;;;;;;12.17;9.13;;;;;;;1.23;59.92;99790.88;10148008;29;20261;-85
2022/11/19 01:51:25;;;;;;;11.13;8.73;;;;;;;1.30;61.96;99802.50;10139284;29;20197;-77
2022/11/19 01:56:47;;;;;;;11.40;10.20;;;;;;;0.41;61.45;99811.75;10136493;29;20602;-78
2022/11/19 02:02:09;;;;;;;12.67;10.77;;;;;;;0.90;61.08;99820.19;10119448;29;20316;-79
2022/11/19 02:07:32;;;;;;;12.17;10.87;;;;;;;0.94;59.92;99820.47;10126850;29;20225;-78
2022/11/19 02:13:24;;;;;;;12.90;11.57;;;;;;;0.50;60.72;99821.16;10125982;29;20232;-78
2022/11/19 02:19:02;;;;;;;15.03;11.53;;;;;;;0.89;60.12;99824.06;10131373;29;20197;-86
2022/11/19 02:24:43;;;;;;;13.17;11.53;;;;;;;0.52;61.26;99830.03;10139023;29;20197;-78
2022/11/19 02:30:06;;;;;;;14.20;11.37;;;;;;;0.76;60.54;99824.69;10136595;29;20674;-78
2022/11/19 02:35:37;;;;;;;13.63;11.27;;;;;;;0.67;60.30;99831.09;10122518;29;20236;-78
2022/11/19 02:41:33;;;;;;;13.67;11.13;;;;;;;0.79;61.08;99834.38;10157412;29;20308;-81
2022/11/19 02:46:56;;;;;;;13.93;11.50;;;;;;;1.28;58.80;99835.28;10143653;29;20266;-78
2022/11/19 02:52:18;;;;;;;13.30;11.60;;;;;;;1.10;59.40;99833.13;10134234;29;20225;-82
2022/11/19 02:57:48;;;;;;;14.63;11.97;;;;;;;0.84;60.77;99837.13;10118502;29;20583;-82
2022/11/19 03:08:59;;;;;;;16.07;12.47;;;;;;;0.37;63.09;99827.28;10141237;29;20193;-78
2022/11/19 03:20:25;;;;;;;17.53;12.27;;;;;;;0.19;63.34;99847.22;10124323;29;20645;-78
2022/11/19 03:25:51;;;;;;;15.63;13.27;;;;;;;0.96;60.51;99844.00;10127106;29;20194;-79
2022/11/19 03:31:14;;;;;;;16.23;12.30;;;;;;;0.77;61.67;99848.53;10146487;29;20204;-78
2022/11/19 03:36:38;;;;;;;15.87;13.33;;;;;;;0.80;59.92;99836.06;10170899;29;20260;-79
2022/11/19 03:42:04;;;;;;;16.20;13.27;;;;;;;0.56;61.22;99836.69;10143670;29;20249;-79
2022/11/19 03:47:31;;;;;;;16.60;13.47;;;;;;;0.39;60.34;99843.63;10138993;29;20642;-79
2022/11/19 03:52:53;;;;;;;18.40;14.40;;;;;;;0.41;60.12;99850.56;10126014;29;20662;-78
2022/11/19 03:58:15;;;;;;;17.37;13.83;;;;;;;0.70;59.91;99861.06;10139076;29;20606;-79
2022/11/19 04:03:37;;;;;;;17.93;14.50;;;;;;;0.83;59.64;99849.34;10142665;29;20220;-79
2022/11/19 04:08:59;;;;;;;16.07;13.40;;;;;;;0.56;59.57;99864.41;10154060;29;20260;-79
2022/11/19 04:14:21;;;;;;;15.57;13.23;;;;;;;-0.10;61.52;99877.44;10125590;29;20289;-77
2022/11/19 04:19:44;;;;;;;17.83;14.07;;;;;;;0.35;58.34;99873.84;10132255;29;20567;-79
2022/11/19 04:25:06;;;;;;;16.87;13.93;;;;;;;0.05;60.99;99873.84;10132200;29;20249;-79
2022/11/19 04:30:28;;;;;;;16.77;14.03;;;;;;;0.24;59.39;99872.16;10150927;29;20201;-79
2022/11/19 04:35:51;;;;;;;15.13;12.93;;;;;;;0.30;58.55;99879.38;10146842;29;20283;-79
2022/11/19 04:41:13;;;;;;;17.63;13.67;;;;;;;0.25;59.03;99890.47;10154290;29;20283;-79
2022/11/19 04:46:35;;;;;;;17.03;13.63;;;;;;;0.48;58.18;99897.41;10148924;29;20229;-84
2022/11/19 04:51:57;;;;;;;18.27;14.17;;;;;;;0.82;58.39;99900.41;10121435;29;20189;-86
2022/11/19 04:57:19;;;;;;;19.57;14.63;;;;;;;0.42;57.78;99896.59;10120262;29;20679;-86
2022/11/19 05:02:41;;;;;;;17.93;14.33;;;;;;;-0.03;59.49;99910.41;10141912;29;20276;-85
2022/11/19 05:08:03;;;;;;;20.03;15.37;;;;;;;0.09;60.03;99908.19;10142563;29;20197;-84
2022/11/19 05:13:25;;;;;;;19.53;15.20;;;;;;;0.10;60.00;99913.47;10126008;29;20252;-85
2022/11/19 05:18:48;;;;;;;18.17;14.60;;;;;;;0.09;59.66;99919.28;10116961;29;20197;-85
2022/11/19 05:24:10;;;;;;;21.80;15.73;;;;;;;0.41;59.44;99928.19;10101706;29;20258;-82
2022/11/19 05:29:32;;;;;;;21.30;15.60;;;;;;;-0.06;59.73;99944.19;10102696;29;20186;-86
2022/11/19 05:34:54;;;;;;;20.87;15.77;;;;;;;0.20;58.94;99938.41;10090088;29;20190;-86
2022/11/19 05:40:17;;;;;;;19.83;15.20;;;;;;;-0.02;59.08;99945.31;10136879;29;20197;-84
2022/11/19 05:45:39;;;;;;;22.17;16.37;;;;;;;-0.46;60.55;99956.81;10167950;29;20217;-83
2022/11/19 05:51:01;;;;;;;24.13;16.30;;;;;;;-0.41;59.82;99954.09;10135159;29;20209;-84
2022/11/19 05:56:23;;;;;;;20.10;15.20;;;;;;;-0.42;59.42;99957.94;10124925;29;20728;-86
2022/11/19 06:01:46;;;;;;;23.43;16.33;;;;;;;-0.02;59.43;99968.31;10126532;29;20233;-83
2022/11/19 06:07:09;;;;;;;22.70;15.83;;;;;;;-0.39;58.29;99971.25;10141254;29;20483;-84
2022/11/19 06:12:32;;;;;;;23.13;15.77;;;;;;;-0.41;59.84;99981.78;10141345;29;20197;-86
2022/11/19 06:17:55;;;;;;;20.33;15.23;;;;;;;-0.53;58.52;99978.41;10140003;29;20666;-84
2022/11/19 06:23:17;;;;;;;19.50;14.63;;;;;;;0.11;56.10;99989.09;10138361;29;20285;-84
2022/11/19 06:28:39;;;;;;;19.77;14.10;;;;;;;0.24;56.33;99983.03;10139302;29;20253;-83
2022/11/19 06:34:01;;;;;;;18.67;14.03;;;;;;;-0.66;57.81;99990.81;10139063;29;20245;-83
2022/11/19 06:39:23;;;;;;;18.43;13.67;;;;;;;-0.76;59.24;100012.06;10161421;29;20260;-81
2022/11/19 06:44:46;;;;;;;18.97;12.90;;;;;;;-0.90;57.31;100015.31;10167624;29;20212;-85
2022/11/19 06:50:10;;;;;;;16.67;12.87;;;;;;;-0.57;56.77;100016.00;10151731;29;20261;-88
2022/11/19 06:55:32;;;;;;;18.53;13.30;;;;;;;-0.13;55.95;100017.31;10148618;29;20262;-82
2022/11/19 07:00:54;;;;;;;15.90;12.33;;;;;;;-0.37;56.37;100024.44;10112123;29;20232;-83
2022/11/19 07:06:16;;;;;;;19.07;13.87;;;;;;;-0.36;57.84;100033.56;10129507;29;20617;-84
2022/11/19 07:11:38;;;;;;;18.47;12.93;;;;;;;-0.59;57.49;100038.44;10135631;29;20849;-83
2022/11/19 07:17:00;;;;;;;19.23;13.43;;;;;;;0.12;55.96;100046.19;10136180;29;20245;-83
2022/11/19 07:22:23;;;;;;;17.87;12.90;;;;;;;-0.67;58.27;100054.72;10131276;29;20241;-83
2022/11/19 07:27:46;;;;;;;16.30;12.57;;;;;;;-0.90;58.54;100055.97;10119699;29;20230;-84
2022/11/19 07:33:09;;;;;;;17.13;12.60;;;;;;;-0.17;54.91;100054.97;10116532;29;20225;-84
2022/11/19 07:38:31;;;;;;;15.17;11.70;;;;;;;-0.52;55.33;100065.88;10129366;29;20248;-84
2022/11/19 07:43:53;;;;;;;14.93;11.93;;;;;;;-0.45;54.58;100069.22;10125962;29;20248;-87
2022/11/19 07:49:15;;;;;;;14.77;12.07;;;;;;;-0.43;55.40;100069.78;10150451;29;20241;-85
2022/11/19 07:54:37;;;;;;;15.10;11.53;;;;;;;-0.36;55.49;100078.72;10119984;29;20607;-86
2022/11/19 07:59:59;;;;;;;14.03;11.27;;;;;;;-0.45;55.23;100094.16;10139868;29;20272;-85
2022/11/19 08:05:22;;;;;;;15.97;11.10;;;;;;;-0.05;53.40;100085.19;10135433;29;20324;-85
2022/11/19 08:10:44;;;;;;;11.93;9.77;;;;;;;-0.45;54.11;100094.16;10102528;29;20256;-84
2022/11/19 08:16:08;;;;;;;11.80;9.57;;;;;;;-0.05;52.31;100089.91;10128444;29;20269;-83
2022/11/19 08:21:31;;;;;;;12.40;10.30;;;;;;;-1.42;55.02;100120.25;10114980;29;20722;-85
2022/11/19 08:26:53;;;;;;;11.10;8.63;;;;;;;-0.65;52.51;100111.47;10115995;29;20193;-86
2022/11/19 08:32:16;;;;;;;11.33;8.10;;;;;;;-0.49;52.41;100121.56;10132886;29;20252;-86
2022/11/19 08:37:38;;;;;;;10.27;8.27;;;;;;;-1.01;53.37;100132.50;10135281;29;20656;-87
2022/11/19 08:43:01;;;;;;;9.27;7.93;;;;;;;-0.95;52.86;100139.75;10130150;29;20260;-86
2022/11/19 08:48:23;;;;;;;10.03;7.93;;;;;;;-0.53;52.79;100127.88;10112393;29;20255;-85
2022/11/19 08:53:46;;;;;;;10.63;7.63;;;;;;;-1.07;53.37;100132.72;10119898;29;20233;-90
2022/11/19 08:59:08;;;;;;;9.23;7.63;;;;;;;-0.99;52.05;100155.19;10131331;29;20257;-80
2022/11/19 09:04:31;;;;;;;9.13;7.70;;;;;;;-1.00;53.73;100150.78;10128063;29;20257;-84
2022/11/19 09:09:53;;;;;;;8.40;7.50;;;;;;;-0.39;51.29;100154.00;10113270;29;20238;-83
2022/11/19 09:15:15;;;;;;;10.20;7.93;;;;;;;-0.99;52.40;100163.47;10104095;29;20237;-84
2022/11/19 09:20:37;;;;;;;9.43;7.60;;;;;;;-0.64;51.85;100168.50;10132878;29;20283;-85
2022/11/19 09:26:05;;;;;;;8.83;7.33;;;;;;;-0.84;52.59;100171.91;10109407;29;20262;-81
2022/11/19 09:31:27;;;;;;;9.67;7.70;;;;;;;-0.67;50.81;100163.50;10095405;29;20229;-83
2022/11/19 09:36:50;;;;;;;8.87;7.63;;;;;;;-1.40;52.94;100178.03;10119861;29;20233;-87
2022/11/19 09:42:12;;;;;;;10.00;8.00;;;;;;;-1.19;53.87;100179.91;10108811;29;20307;-85
2022/11/19 09:48:12;;;;;;;8.63;7.40;;;;;;;-1.47;52.92;100193.97;10112756;29;20257;-84
2022/11/19 09:53:49;;;;;;;7.87;6.57;;;;;;;-0.67;51.26;100193.09;10095671;29;20241;-84
2022/11/19 09:59:27;;;;;;;8.57;7.53;;;;;;;-1.24;51.89;100210.25;10103016;29;20289;-86
2022/11/19 10:04:50;;;;;;;8.13;6.83;;;;;;;-0.84;50.48;100205.13;10087464;29;20682;-83
2022/11/19 10:10:24;;;;;;;9.70;7.67;;;;;;;-0.59;50.95;100209.19;10090195;29;20237;-84
2022/11/19 10:16:05;;;;;;;7.97;7.17;;;;;;;-0.98;51.80;100209.41;10103319;29;20236;-84
2022/11/19 10:21:35;;;;;;;8.17;6.43;;;;;;;-0.53;50.90;100206.22;10116397;29;20261;-81
2022/11/19 10:27:00;;;;;;;7.93;6.70;;;;;;;-0.25;50.91;100204.22;10087915;29;20313;-87
2022/11/19 10:33:08;;;;;;;7.70;6.90;;;;;;;0.12;47.99;100213.31;10107851;29;20228;-87
2022/11/19 10:38:38;;;;;;;8.40;6.40;;;;;;;-0.15;48.82;100215.34;10092436;29;20249;-86
2022/11/19 10:44:36;;;;;;;8.47;6.63;;;;;;;-0.30;48.67;100213.31;10111048;29;20390;-81
2022/11/19 10:49:58;;;;;;;7.90;6.03;;;;;;;-0.30;48.90;100206.94;10120910;29;20589;-80
2022/11/19 10:55:49;;;;;;;7.33;6.37;;;;;;;-0.06;47.87;100199.06;10083040;29;20257;-84
2022/11/19 11:01:16;;;;;;;7.47;6.63;;;;;;;0.81;47.16;100188.09;10137753;29;20262;-83
2022/11/19 11:06:48;;;;;;;6.40;5.80;;;;;;;0.55;46.01;100209.38;10114543;29;20232;-85
2022/11/19 11:18:05;;;;;;;7.73;6.37;;;;;;;0.50;47.69;100211.28;10153203;29;20212;-84
2022/11/19 11:23:29;;;;;;;7.33;6.63;;;;;;;0.92;46.03;100202.81;10151656;29;20614;-88
2022/11/19 11:29:04;;;;;;;6.73;6.03;;;;;;;0.38;45.87;100200.44;10159043;29;20189;-90
2022/11/19 11:34:26;;;;;;;8.00;6.30;;;;;;;0.87;45.56;100202.78;10137556;29;20622;-90
2022/11/19 11:39:51;;;;;;;8.30;6.93;;;;;;;0.62;47.11;100205.50;10140551;29;20190;-90
2022/11/19 11:45:31;;;;;;;7.83;6.33;;;;;;;0.35;46.85;100200.97;10108983;29;20221;-90
2022/11/19 11:50:54;;;;;;;10.53;6.67;;;;;;;0.35;45.76;100203.72;10138598;29;20198;-90
2022/11/19 11:56:19;;;;;;;8.13;7.00;;;;;;;0.84;45.63;100190.28;10146463;29;20547;-90
2022/11/19 12:01:41;;;;;;;7.70;6.57;;;;;;;0.19;46.27;100199.19;10139244;29;20205;-91
2022/11/19 12:07:25;;;;;;;7.13;5.83;;;;;;;1.08;44.68;100182.31;10148759;29;20255;-88
2022/11/19 12:12:56;;;;;;;7.70;6.87;;;;;;;1.22;44.97;100183.41;10150113;29;20678;-90
2022/11/19 12:18:30;;;;;;;6.97;6.27;;;;;;;0.62;46.91;100183.31;10127981;29;20196;-90
2022/11/19 12:23:55;;;;;;;7.07;5.77;;;;;;;0.78;44.99;100183.09;10137470;29;20221;-90
2022/11/19 12:29:20;;;;;;;7.33;6.50;;;;;;;0.47;47.80;100178.53;10136463;29;20201;-91
2022/11/19 12:35:24;;;;;;;8.13;6.53;;;;;;;0.84;45.66;100183.91;10141835;29;20204;-84
2022/11/19 12:40:52;;;;;;;8.57;6.57;;;;;;;0.60;46.15;100184.41;10093962;29;20268;-89
2022/11/19 12:46:40;;;;;;;7.93;6.47;;;;;;;1.06;44.98;100184.53;10130931;29;21254;-89
2022/11/19 12:52:34;;;;;;;7.87;6.43;;;;;;;0.90;46.39;100177.28;10155181;29;20201;-90
2022/11/19 12:58:14;;;;;;;8.07;7.20;;;;;;;1.45;44.29;100173.69;10120397;29;20204;-90
2022/11/19 13:04:04;;;;;;;10.37;6.43;;;;;;;0.83;44.65;100179.47;10144031;29;20241;-92
2022/11/19 13:09:42;;;;;;;10.00;7.47;;;;;;;1.57;43.52;100170.63;10135674;29;20254;-80
2022/11/19 13:15:16;;;;;;;8.13;6.37;;;;;;;1.32;42.99;100179.81;10125218;29;20264;-90
2022/11/19 13:20:51;;;;;;;7.27;5.93;;;;;;;1.00;43.40;100182.84;10140790;29;20257;-85
2022/11/19 13:26:18;;;;;;;9.17;6.53;;;;;;;0.86;44.06;100178.91;10124593;29;20256;-86
2022/11/19 13:31:45;;;;;;;7.53;6.30;;;;;;;0.84;43.97;100179.19;10119851;29;20244;-84
2022/11/19 13:37:18;;;;;;;8.13;6.53;;;;;;;0.63;43.65;100184.97;10117080;29;20217;-88
2022/11/19 13:48:28;;;;;;;7.47;6.60;;;;;;;0.10;46.63;100179.47;10096287;29;20324;-86
2022/11/19 13:53:51;;;;;;;7.27;6.37;;;;;;;0.66;46.35;100178.88;10127724;29;20229;-84
2022/11/19 13:59:41;;;;;;;8.80;6.33;;;;;;;0.63;44.20;100182.22;10120307;29;20544;-85
2022/11/19 14:05:58;;;;;;;9.43;6.80;;;;;;;0.75;44.55;100180.00;10101306;29;20215;-85
2022/11/19 14:11:37;;;;;;;6.40;5.50;;;;;;;0.80;44.65;100180.88;10105022;29;20257;-87
2022/11/19 14:28:52;;;;;;;6.87;6.03;;;;;;;1.00;43.19;100185.59;10094106;29;20213;-86
2022/11/19 14:34:29;;;;;;;7.33;6.33;;;;;;;0.51;46.09;100188.00;10122422;29;20229;-84
2022/11/19 14:40:00;;;;;;;8.10;6.57;;;;;;;0.84;44.36;100197.78;10093493;29;20221;-83
2022/11/19 14:45:23;;;;;;;7.93;6.80;;;;;;;0.81;45.40;100198.34;10101302;29;20328;-87
2022/11/19 14:50:57;;;;;;;7.00;6.30;;;;;;;0.85;44.68;100199.44;10111071;29;20551;-86
2022/11/19 14:56:21;;;;;;;8.23;6.63;;;;;;;0.24;44.90;100202.00;10135730;29;20362;-83
2022/11/19 15:01:57;;;;;;;7.93;5.90;;;;;;;0.29;45.08;100210.34;10119347;29;20257;-81
2022/11/19 15:07:43;;;;;;;7.27;5.57;;;;;;;0.64;43.40;100208.84;10128934;29;20288;-88
2022/11/19 15:13:42;;;;;;;7.37;5.93;;;;;;;0.62;43.72;100216.59;10094717;29;20400;-85
2022/11/19 15:19:16;;;;;;;7.17;5.97;;;;;;;0.55;43.86;100194.69;10104470;29;20233;-83
2022/11/19 15:24:47;;;;;;;6.80;6.03;;;;;;;0.50;43.74;100214.88;10009958;29;20686;-82
2022/11/19 15:30:19;;;;;;;7.30;5.77;;;;;;;0.50;45.98;100225.97;9669307;29;20503;-85
2022/11/19 15:36:12;;;;;;;7.07;5.60;;;;;;;0.62;43.80;100216.59;9969485;29;20507;-84
2022/11/19 15:41:37;;;;;;;8.50;6.27;;;;;;;0.14;43.98;100222.19;10107088;29;20627;-82
2022/11/19 15:47:03;;;;;;;8.27;7.27;;;;;;;0.03;44.45;100226.00;10097925;29;20229;-84
2022/11/19 15:52:27;;;;;;;8.23;6.47;;;;;;;-0.23;45.37;100226.94;10121334;29;20566;-79
2022/11/19 15:57:49;;;;;;;11.50;10.07;;;;;;;-0.42;46.19;100218.22;10129054;29;20809;-79
2022/11/19 16:03:12;;;;;;;7.50;6.07;;;;;;;-0.67;45.64;100220.78;10139134;29;20240;-89
2022/11/19 16:08:34;;;;;;;8.97;6.20;;;;;;;-0.69;47.07;100217.44;10149853;29;20261;-84
2022/11/19 16:19:39;;;;;;;7.50;6.50;;;;;;;-0.94;47.14;100220.81;10127067;29;20562;-82
2022/11/19 16:25:10;;;;;;;8.23;6.33;;;;;;;-0.42;46.03;100220.13;10100131;29;20268;-78
2022/11/19 16:30:42;;;;;;;9.63;7.10;;;;;;;-0.64;47.08;100225.78;10127642;29;20275;-81
2022/11/19 16:36:18;;;;;;;7.97;6.63;;;;;;;-0.64;46.82;100226.63;10101428;29;20285;-78
2022/11/19 16:47:30;;;;;;;10.20;6.53;;;;;;;-0.71;48.31;100225.16;10115419;29;20336;-84
2022/11/19 16:52:53;;;;;;;8.40;6.73;;;;;;;-0.83;46.77;100226.16;10127350;29;20310;-82
2022/11/19 16:58:18;;;;;;;8.47;6.03;;;;;;;-1.05;48.37;100230.94;10094307;29;20241;-84
2022/11/19 17:03:41;;;;;;;7.87;6.60;;;;;;;-0.94;47.13;100226.34;10125224;29;20265;-82
2022/11/19 17:09:05;;;;;;;7.67;6.50;;;;;;;-0.86;46.78;100223.91;10125277;29;20262;-83
2022/11/19 17:14:33;;;;;;;9.37;6.67;;;;;;;-1.48;49.08;100236.53;10112989;29;20300;-83
2022/11/19 17:19:56;;;;;;;8.07;6.90;;;;;;;-1.48;49.81;100231.81;10112280;29;20244;-84
2022/11/19 17:25:19;;;;;;;9.07;6.80;;;;;;;-1.24;49.07;100240.66;10120618;29;20280;-83
2022/11/19 17:30:43;;;;;;;7.87;6.40;;;;;;;-1.62;50.35;100247.13;10115416;29;20209;-82
2022/11/19 17:36:12;;;;;;;7.90;6.60;;;;;;;-1.11;48.17;100231.13;10115342;29;20281;-79
2022/11/19 17:47:17;;;;;;;9.93;6.67;;;;;;;-1.34;48.86;100237.78;10126344;29;20261;-79
2022/11/19 17:52:39;;;;;;;8.13;6.67;;;;;;;-1.70;49.39;100251.19;10099353;29;20210;-83
2022/11/19 17:58:01;;;;;;;10.23;6.67;;;;;;;-1.40;49.34;100252.66;10110417;29;20312;-78
2022/11/19 18:03:23;;;;;;;9.53;7.30;;;;;;;-2.00;50.30;100251.59;10096548;29;20253;-87
2022/11/19 18:08:46;;;;;;;9.87;6.73;;;;;;;-1.76;49.94;100252.19;10116616;29;20201;-86
2022/11/19 18:14:11;;;;;;;10.73;7.33;;;;;;;-1.43;48.75;100255.94;10120525;29;20206;-78
2022/11/19 18:19:33;;;;;;;11.40;7.83;;;;;;;-1.42;49.29;100260.38;10133795;29;20244;-78
2022/11/19 18:24:57;;;;;;;10.13;8.17;;;;;;;-1.34;49.22;100265.44;10135465;29;20245;-81
2022/11/19 18:30:19;;;;;;;11.07;7.60;;;;;;;-1.55;49.54;100259.69;10109781;29;20209;-83
2022/11/19 18:35:41;;;;;;;10.67;7.50;;;;;;;-1.92;50.20;100256.69;10125949;29;20221;-79
2022/11/19 18:41:03;;;;;;;11.30;7.73;;;;;;;-1.92;50.48;100248.41;10127677;29;20232;-82
2022/11/19 18:46:25;;;;;;;14.83;7.40;;;;;;;-1.70;50.21;100261.41;10105449;29;20260;-80
2022/11/19 18:51:48;;;;;;;12.07;9.10;;;;;;;-1.60;49.67;100244.94;10108962;29;20284;-79
2022/11/19 18:57:10;;;;;;;9.40;7.83;;;;;;;-1.55;49.58;100254.16;10121172;29;20236;-79
2022/11/19 19:02:34;;;;;;;12.13;8.50;;;;;;;-1.73;50.36;100261.91;10110105;29;20261;-82
2022/11/19 19:07:56;;;;;;;9.13;7.17;;;;;;;-1.65;49.67;100254.03;10116244;29;20260;-80
2022/11/19 19:13:20;;;;;;;9.87;7.37;;;;;;;-1.78;50.05;100259.09;10109606;29;20562;-81
2022/11/19 19:18:42;;;;;;;8.00;7.17;;;;;;;-1.73;50.14;100251.69;10130126;29;20210;-83
2022/11/19 19:24:08;;;;;;;8.37;7.20;;;;;;;-1.94;51.01;100255.28;10121490;29;20248;-81
2022/11/19 19:29:30;;;;;;;10.33;7.83;;;;;;;-1.60;50.83;100251.31;10125579;29;20264;-90
2022/11/19 19:34:54;;;;;;;9.97;7.80;;;;;;;-2.01;51.75;100260.13;10140293;29;20202;-91
2022/11/19 19:40:17;;;;;;;12.53;9.30;;;;;;;-1.91;51.62;100261.13;10135088;29;20265;-84
2022/11/19 19:45:39;;;;;;;13.00;8.70;;;;;;;-1.77;51.04;100256.03;10109005;29;20224;-80
2022/11/19 19:51:01;;;;;;;9.57;7.77;;;;;;;-2.08;51.65;100254.78;10127928;29;20209;-81
2022/11/19 19:56:26;;;;;;;9.50;7.77;;;;;;;-2.28;51.75;100252.50;10101435;29;20213;-79
2022/11/19 20:01:49;;;;;;;11.80;8.57;;;;;;;-2.30;52.02;100251.97;10113385;29;20200;-81
2022/11/19 20:07:11;;;;;;;11.03;8.67;;;;;;;-2.31;52.12;100261.31;10118887;29;20234;-81
2022/11/19 20:18:14;;;;;;;11.90;8.13;;;;;;;-2.23;52.31;100253.69;10124694;29;20665;-89
2022/11/19 20:23:39;;;;;;;11.77;8.80;;;;;;;-2.15;51.77;100258.78;10154566;29;20606;-85
2022/11/19 20:29:03;;;;;;;13.40;8.73;;;;;;;-2.80;54.55;100251.09;10120653;29;20216;-78
2022/11/19 20:34:25;;;;;;;10.97;9.30;;;;;;;-2.42;53.24;100262.22;10121435;29;20276;-80
2022/11/19 20:39:48;;;;;;;13.37;9.60;;;;;;;-2.22;53.39;100252.59;10123287;29;20265;-80
2022/11/19 20:45:10;;;;;;;12.67;9.13;;;;;;;-2.43;53.27;100257.81;10126590;29;20308;-80
2022/11/19 20:50:32;;;;;;;11.87;9.80;;;;;;;-2.49;53.82;100256.03;10133310;29;20273;-81
2022/11/19 20:55:54;;;;;;;19.87;16.10;;;;;;;-2.98;55.35;100258.53;10125178;29;20229;-89
2022/11/19 21:01:18;;;;;;;14.03;11.13;;;;;;;-2.72;54.77;100258.97;10133118;29;20209;-91
2022/11/19 21:06:42;;;;;;;16.13;11.63;;;;;;;-2.74;54.63;100261.97;10143194;29;20605;-91
2022/11/19 21:12:05;;;;;;;14.90;11.33;;;;;;;-2.63;54.24;100252.78;10124252;29;20225;-87
2022/11/19 21:17:28;;;;;;;17.87;11.33;;;;;;;-3.19;55.93;100253.69;10131374;29;20667;-90
2022/11/19 21:22:54;;;;;;;17.30;12.00;;;;;;;-2.99;55.61;100256.00;10129571;29;20253;-89
2022/11/19 21:28:19;;;;;;;14.07;10.47;;;;;;;-2.94;54.94;100255.28;10113948;29;20745;-79
2022/11/19 21:33:41;;;;;;;13.87;10.63;;;;;;;-2.83;55.09;100251.59;10139961;29;20284;-88
2022/11/19 21:39:05;;;;;;;15.33;10.73;;;;;;;-2.53;54.80;100243.84;10134508;29;20217;-89
2022/11/19 21:44:27;;;;;;;13.13;9.97;;;;;;;-3.17;55.82;100246.00;10114335;29;20260;-87
2022/11/19 21:49:52;;;;;;;12.47;9.50;;;;;;;-3.00;55.21;100241.38;10060525;29;20581;-87
2022/11/19 21:55:15;;;;;;;13.20;9.63;;;;;;;-3.13;56.04;100238.09;10073567;29;20207;-89
2022/11/19 22:00:39;;;;;;;15.03;10.03;;;;;;;-2.93;55.81;100246.72;10059565;29;20286;-80
2022/11/19 22:06:06;;;;;;;14.93;10.67;;;;;;;-2.83;55.30;100235.91;10072262;29;20262;-87
2022/11/19 22:11:28;;;;;;;17.50;11.63;;;;;;;-3.04;55.58;100244.88;10056471;29;20203;-79
2022/11/19 22:16:53;;;;;;;15.57;11.97;;;;;;;-2.98;56.07;100252.16;10058269;29;20255;-79
2022/11/19 22:22:15;;;;;;;16.07;12.53;;;;;;;-2.87;55.50;100239.41;10059552;29;20238;-88
2022/11/19 22:27:37;;;;;;;16.03;12.00;;;;;;;-2.90;55.92;100235.19;10061914;29;20214;-83
2022/11/19 22:33:00;;;;;;;15.63;10.93;;;;;;;-3.10;56.27;100241.19;10059103;29;20274;-80
2022/11/19 22:38:22;;;;;;;16.43;10.80;;;;;;;-3.11;56.24;100235.94;10057606;29;20226;-84
2022/11/19 22:43:44;;;;;;;12.10;9.90;;;;;;;-3.22;56.85;100245.09;10071345;29;20258;-89
2022/11/19 22:49:07;;;;;;;13.83;10.43;;;;;;;-3.38;56.73;100238.44;10058480;29;20271;-89
2022/11/19 22:54:29;;;;;;;13.40;10.77;;;;;;;-3.38;57.25;100241.19;10055381;29;20234;-86
2022/11/19 22:59:53;;;;;;;15.77;11.30;;;;;;;-3.62;57.88;100242.38;10056099;29;20210;-91
2022/11/19 23:05:15;;;;;;;16.10;11.47;;;;;;;-3.59;57.88;100244.63;10052672;29;20310;-81
2022/11/19 23:10:37;;;;;;;15.43;10.70;;;;;;;-3.43;57.19;100235.56;10048449;29;20278;-88
2022/11/19 23:16:06;;;;;;;14.63;11.23;;;;;;;-3.73;58.49;100239.41;10055688;29;20203;-86
2022/11/19 23:21:28;;;;;;;16.10;12.70;;;;;;;-3.02;56.81;100227.00;10052707;29;20298;-80
2022/11/19 23:26:51;;;;;;;14.67;12.30;;;;;;;-3.53;57.93;100207.84;10069139;29;20673;-85
2022/11/19 23:32:15;;;;;;;16.67;12.00;;;;;;;-3.60;57.44;100218.19;10054110;29;20270;-89
2022/11/19 23:37:37;;;;;;;12.67;10.83;;;;;;;-3.58;57.20;100211.31;10061986;29;20500;-87
2022/11/19 23:42:59;;;;;;;15.37;10.93;;;;;;;-3.63;57.59;100218.66;10058315;29;20214;-85
2022/11/19 23:48:21;;;;;;;17.90;13.10;;;;;;;-3.66;58.05;100219.13;10104859;29;20228;-89
2022/11/19 23:53:44;;;;;;;18.90;13.30;;;;;;;-3.26;57.05;100217.19;10145322;29;20201;-84
2022/11/19 23:59:09;;;;;;;15.77;12.03;;;;;;;-3.61;57.79;100209.06;10145549;29;20197;-85
